Nearby METAR Reports for Burr Ridge, IL

 

KMDW - Chicago, Illinois, USA
Distance from station: ENE 8mi, 13km
Updated: Thu, 20-Jun-2019 12:53pm MST
Overcast
Overcast
 Wind from N
Wind: N 9 mph , 15 km/h
Temperature: 64°F , 18°C
Dew Point: 59°F , 15°C
Humidity: 83%
Barometer: 29.77 inHg , 1008.1 hPa
Clouds: Overcast
Visibility: 10 miles , 16 km
Cloud details: Overcast 1500 ft
2019/06/20 19:53 KMDW 201953Z 01008KT 10SM OVC015 18/15 A2977 RMK AO2 SLP077 T01830150
KLOT - Romeoville/Chi, Illinois, USA
Distance from station: SW 15mi, 24km
Updated: Thu, 20-Jun-2019 12:55pm MST
Overcast
Overcast
 Wind from NNW
Wind: NNW 7 mph , 11 km/h
Temperature: 66°F , 19°C
Dew Point: 61°F , 16°C
Humidity: 83%
Barometer: 29.79 inHg , 1008.8 hPa
Clouds: Overcast
Visibility: 10 miles , 16 km
Cloud details: Mostly cloudy 1500 ft
Mostly cloudy 2300 ft
Overcast 2800 ft
2019/06/20 19:55 KLOT 201955Z AUTO 34006KT 10SM BKN015 BKN023 OVC028 19/16 A2979 RMK AO2 T01860160
 
KORD - Chicago O'hare, Illinois, USA
Distance from station: N 16mi, 25km
Updated: Thu, 20-Jun-2019 1:01pm MST
Overcast
Overcast
 Wind from N
Wind: N 10 mph , 17 km/h
Temperature: 68°F , 20°C
Dew Point: 59°F , 15°C
Humidity: 73%
Barometer: 29.77 inHg , 1008.1 hPa
Clouds: Overcast
Visibility: 10 miles , 16 km
Cloud details: Partly cloudy 2400 ft
Mostly cloudy 3700 ft
Overcast 7000 ft
2019/06/20 20:01 KORD 202001Z 01009KT 10SM SCT024 BKN037 OVC070 20/15 A2977 RMK AO2 T02000150
KDPA - Chicago/Dupage, Illinois, USA
Distance from station: WNW 21mi, 34km
Updated: Thu, 20-Jun-2019 1:00pm MST
Overcast
Overcast
 Wind from N
Wind: N 12 mph , 19 km/h
Temperature: 70°F , 21°C
Dew Point: 57°F , 14°C
Humidity: 64%
Barometer: 29.78 inHg , 1008.5 hPa
Clouds: Overcast
Visibility: 10 miles , 16 km
Cloud details: Partly cloudy 2500 ft
Mostly cloudy 3200 ft
Overcast 4100 ft
2019/06/20 20:00 KDPA 202000Z 35010KT 10SM SCT025 BKN032 OVC041 21/14 A2978 RMK AO2 T02110144
 
KJOT - Joliet, Illinois, USA
Distance from station: SW 22mi, 36km
Updated: Thu, 20-Jun-2019 12:55pm MST
Overcast
Overcast
 Wind from NNW
Wind: NNW 7 mph , 11 km/h
Temperature: 66°F , 19°C
Dew Point: 64°F , 18°C
Humidity: 94%
Barometer: 29.79 inHg , 1008.8 hPa
Clouds: Overcast
Visibility: 10 miles , 16 km
Cloud details: Mostly cloudy 1500 ft
Overcast 2300 ft
2019/06/20 19:55 KJOT 201955Z AUTO 33006KT 10SM BKN015 OVC023 19/18 A2979 RMK AO2 T01920178
KIGQ - Chicago/Lansing, Illinois, USA
Distance from station: SE 24mi, 39km
Updated: Thu, 20-Jun-2019 12:55pm MST
Mist, Overcast
Mist, Overcast
 Wind from N
Wind: N 6 mph , 9 km/h
Temperature: 61°F , 16°C
Dew Point: 61°F , 16°C
Humidity: 100%
Barometer: 29.78 inHg , 1008.5 hPa
Summary: Mist
Clouds: Overcast
Visibility: 5 miles , 8 km
Cloud details: Overcast 600 ft
2019/06/20 19:55 KIGQ 201955Z AUTO 36005KT 5SM BR OVC006 16/16 A2978 RMK AO2 T01590159
 
KPWK - Palwaukee, Illinois, USA
Distance from station: N 25mi, 40km
Updated: Thu, 20-Jun-2019 1:11pm MST
Overcast
Overcast
 Wind from ENE
Wind: ENE 8 mph , 13 km/h
Temperature: 66°F , 19°C
Dew Point: 55°F , 13°C
Humidity: 68%
Barometer: 29.79 inHg , 1008.8 hPa
Clouds: Overcast
Visibility: 10 miles , 16 km
Cloud details: Few Clouds 1900 ft
Mostly cloudy 2800 ft
Overcast 3900 ft
2019/06/20 20:11 KPWK 202011Z 06007KT 10SM FEW019 BKN028 OVC039 19/13 A2979 RMK AO2 T01890133
KGYY - Gary Regional, Indiana, USA
Distance from station: ESE 27mi, 43km
Updated: Thu, 20-Jun-2019 12:45pm MST
Overcast
Overcast
 Wind from NNW
Wind: NNW 7 mph , 11 km/h
Temperature: 59°F , 15°C
Dew Point: 59°F , 15°C
Humidity: 100%
Barometer: 29.78 inHg , 1008.5 hPa
Clouds: Overcast
Visibility: 10 miles , 16 km
Cloud details: Overcast 1000 ft
2019/06/20 19:45 KGYY 201945Z 33006KT 10SM OVC010 15/15 A2978
 
KARR - Chicago/Aurora, Illinois, USA
Distance from station: W 30mi, 48km
Updated: Thu, 20-Jun-2019 12:52pm MST
Overcast
Overcast
 Wind from NNW
Wind: NNW 10 mph , 17 km/h
Temperature: 66°F , 19°C
Dew Point: 61°F , 16°C
Humidity: 83%
Barometer: 29.79 inHg , 1008.8 hPa
Clouds: Overcast
Visibility: 9 miles , 14 km
Cloud details: Few Clouds 1600 ft
Mostly cloudy 3400 ft
Overcast 5000 ft
2019/06/20 19:52 KARR 201952Z 34009KT 9SM FEW016 BKN034 OVC050 19/16 A2979 RMK AO2 SLP085 T01940156
KC09 - Morris-Washburn, Illinois, USA
Distance from station: SW 35mi, 56km
Updated: Thu, 20-Jun-2019 12:55pm MST
Overcast
Overcast
 Wind from NW
Wind: NW 8 mph , 13 km/h
Temperature: 66°F , 19°C
Dew Point: 63°F , 17°C
Humidity: 88%
Barometer: 29.78 inHg , 1008.5 hPa
Clouds: Overcast
Visibility: 10 miles , 16 km
Cloud details: Mostly cloudy 1500 ft
Mostly cloudy 2100 ft
Overcast 3500 ft
2019/06/20 19:55 KC09 201955Z AUTO 32007KT 10SM BKN015 BKN021 OVC035 19/17 A2978 RMK AO2 T01910170
 
KDKB - De Kalb, Illinois, USA
Distance from station: WNW 43mi, 69km
Updated: Thu, 20-Jun-2019 12:55pm MST
Overcast
Overcast
 Wind from N
Wind: N 9 mph , 15 km/h
Temperature: 68°F , 20°C
Dew Point: 61°F , 16°C
Humidity: 78%
Barometer: 29.81 inHg , 1009.5 hPa
Clouds: Overcast
Visibility: 10 miles , 16 km
Cloud details: Mostly cloudy 2200 ft
Mostly cloudy 3200 ft
Overcast 6500 ft
2019/06/20 19:55 KDKB 201955Z AUTO 36008KT 10SM BKN022 BKN032 OVC065 20/16 A2981 RMK AO2 T01990160
KUGN - Waukegan, Illinois, USA
Distance from station: N 46mi, 73km
Updated: Thu, 20-Jun-2019 12:55pm MST
Overcast
Overcast
 Wind from ENE
Wind: ENE 10 mph , 17 km/h
Temperature: 66°F , 19°C
Dew Point: 55°F , 13°C
Humidity: 68%
Barometer: 29.77 inHg , 1008.1 hPa
Clouds: Overcast
Visibility: 10 miles , 16 km
Cloud details: Mostly cloudy 7500 ft
Overcast 9000 ft
2019/06/20 19:55 KUGN 201955Z 06009KT 10SM BKN075 OVC090 19/13 A2977 RMK AO2 SLP078 T01890133
 
KIKK - Kankakee, Illinois, USA
Distance from station: S 48mi, 77km
Updated: Thu, 20-Jun-2019 12:55pm MST
Overcast
Overcast
 Wind from NNW
Wind: NNW 10 mph , 17 km/h
Temperature: 66°F , 19°C
Dew Point: 61°F , 16°C
Humidity: 83%
Barometer: 29.79 inHg , 1008.8 hPa
Clouds: Overcast
Visibility: 10 miles , 16 km
Cloud details: Overcast 1300 ft
2019/06/20 19:55 KIKK 201955Z AUTO 34009KT 10SM OVC013 19/16 A2979 RMK AO2 T01850159